Time;durP1;ratioP1;P1;durP2;ratioP2;P2;SDS_P1;SDS_P2;PMS_P1;PMS_P2;Temp;Humidity;BMP_temperature;BMP_pressure;BME280_temperature;BME280_humidity;BME280_pressure;Samples;Min_cycle;Max_cycle;Signal;HPM_P1;HPM_P2
2022/09/24 00:01:45;;;;;;;0.68;0.68;;;12.10;99.90;;;;;;5042391;28;20181;-62
2022/09/24 00:04:11;;;;;;;0.00;0.00;;;12.10;99.90;;;;;;5036425;28;20252;-62
2022/09/24 00:06:45;;;;;;;0.10;0.10;;;12.10;99.90;;;;;;5042706;28;20190;-62
2022/09/24 00:09:14;;;;;;;0.00;0.00;;;12.10;99.90;;;;;;5040929;28;20225;-62
2022/09/24 00:11:41;;;;;;;0.00;0.00;;;12.10;99.90;;;;;;5040299;28;20180;-61
2022/09/24 00:14:07;;;;;;;0.03;0.03;;;12.10;99.90;;;;;;5041436;28;20180;-64
2022/09/24 00:16:33;;;;;;;0.00;0.00;;;12.10;99.90;;;;;;5050021;28;20173;-62
2022/09/24 00:19:01;;;;;;;0.00;0.00;;;12.10;99.90;;;;;;5039485;28;20708;-61
2022/09/24 00:21:29;;;;;;;0.00;0.00;;;12.10;99.90;;;;;;5034614;28;20197;-61
2022/09/24 00:24:01;;;;;;;0.00;0.00;;;12.10;99.90;;;;;;5041373;28;20224;-61
2022/09/24 00:29:14;;;;;;;0.00;0.00;;;12.10;99.90;;;;;;5034703;28;20232;-61
2022/09/24 00:31:40;;;;;;;0.00;0.00;;;12.10;99.90;;;;;;5048306;28;20239;-61
2022/09/24 00:34:05;;;;;;;0.00;0.00;;;12.10;99.90;;;;;;5052599;28;20573;-61
2022/09/24 00:36:31;;;;;;;0.00;0.00;;;12.10;99.90;;;;;;5054185;28;20584;-62
2022/09/24 00:38:58;;;;;;;0.00;0.00;;;12.10;99.90;;;;;;5052424;28;20548;-61
2022/09/24 00:41:30;;;;;;;1.08;0.40;;;12.10;99.90;;;;;;5053654;28;20173;-61
2022/09/24 00:43:56;;;;;;;0.00;0.00;;;12.10;99.90;;;;;;5053884;28;20686;-62
2022/09/24 00:46:33;;;;;;;0.00;0.00;;;12.10;99.90;;;;;;5041900;28;20269;-61
2022/09/24 00:49:10;;;;;;;0.03;0.03;;;12.10;99.90;;;;;;5034870;28;20186;-62
2022/09/24 00:51:36;;;;;;;0.00;0.00;;;12.10;99.90;;;;;;5033846;28;20257;-61
2022/09/24 00:54:14;;;;;;;0.10;0.10;;;12.10;99.90;;;;;;5034677;28;20186;-61
2022/09/24 00:56:42;;;;;;;0.10;0.10;;;12.10;99.90;;;;;;5037429;28;20206;-61
2022/09/24 00:59:11;;;;;;;0.00;0.00;;;12.10;99.90;;;;;;5037182;28;20181;-61
2022/09/24 01:01:38;;;;;;;0.00;0.00;;;12.10;99.90;;;;;;5053666;28;20166;-61
2022/09/24 01:04:04;;;;;;;0.00;0.00;;;12.10;99.90;;;;;;5040939;28;20646;-61
2022/09/24 01:06:30;;;;;;;0.00;0.00;;;12.00;99.90;;;;;;5034574;28;20185;-61
2022/09/24 01:08:58;;;;;;;0.00;0.00;;;12.00;99.90;;;;;;5033793;28;20223;-62
2022/09/24 01:11:43;;;;;;;0.10;0.10;;;12.00;99.90;;;;;;5046629;28;20204;-62
2022/09/24 01:14:32;;;;;;;0.10;0.10;;;12.00;99.90;;;;;;5047820;28;20584;-61
2022/09/24 01:17:18;;;;;;;0.50;0.30;;;12.00;99.90;;;;;;5037631;28;20182;-61
2022/09/24 01:20:07;;;;;;;0.00;0.00;;;12.00;99.90;;;;;;5031290;28;20542;-61
2022/09/24 01:22:54;;;;;;;0.00;0.00;;;12.00;99.90;;;;;;5036595;28;20190;-61
2022/09/24 01:25:53;;;;;;;0.00;0.00;;;12.00;99.90;;;;;;5048197;28;20185;-61
2022/09/24 01:28:47;;;;;;;1.00;0.75;;;12.00;99.90;;;;;;5041895;28;20229;-61
2022/09/24 01:31:32;;;;;;;0.30;0.30;;;12.00;99.90;;;;;;5033941;28;20177;-61
2022/09/24 01:34:04;;;;;;;0.00;0.00;;;12.00;99.90;;;;;;5031757;28;20272;-62
2022/09/24 01:36:33;;;;;;;0.50;0.50;;;12.00;99.90;;;;;;5032620;28;20500;-62
2022/09/24 01:39:01;;;;;;;0.10;0.10;;;12.00;99.90;;;;;;5021782;28;20174;-62
2022/09/24 01:41:27;;;;;;;0.00;0.00;;;12.00;99.90;;;;;;5032815;28;20189;-62
2022/09/24 01:43:53;;;;;;;0.10;0.10;;;12.00;99.90;;;;;;5034045;28;20193;-61
2022/09/24 01:46:20;;;;;;;0.00;0.00;;;12.00;99.90;;;;;;5034919;28;20181;-62
2022/09/24 01:48:45;;;;;;;0.20;0.15;;;12.00;99.90;;;;;;5033700;28;20228;-62
2022/09/24 01:51:17;;;;;;;0.00;0.00;;;11.90;99.90;;;;;;5039253;28;20264;-62
2022/09/24 01:54:02;;;;;;;0.00;0.00;;;11.90;99.90;;;;;;5048004;28;20178;-62
2022/09/24 01:56:46;;;;;;;0.17;0.17;;;11.90;99.90;;;;;;5033520;28;20273;-62
2022/09/24 01:59:18;;;;;;;0.00;0.00;;;11.90;99.90;;;;;;5032392;28;20259;-62
2022/09/24 02:01:54;;;;;;;0.20;0.20;;;11.90;99.90;;;;;;5033517;28;20178;-62
2022/09/24 02:04:22;;;;;;;0.00;0.00;;;11.90;99.90;;;;;;5033008;28;20198;-61
2022/09/24 02:07:02;;;;;;;0.38;0.30;;;11.90;99.90;;;;;;5012540;28;20179;-62
2022/09/24 02:09:36;;;;;;;0.00;0.00;;;11.90;99.90;;;;;;5014750;28;20202;-61
2022/09/24 02:12:09;;;;;;;0.00;0.00;;;11.80;99.90;;;;;;5052024;28;20246;-61
2022/09/24 02:14:49;;;;;;;0.05;0.05;;;11.80;99.90;;;;;;5051225;28;20189;-62
2022/09/24 02:17:15;;;;;;;0.10;0.10;;;11.80;99.90;;;;;;5032351;28;20173;-62
2022/09/24 02:19:41;;;;;;;0.15;0.15;;;11.80;99.90;;;;;;5032985;28;20178;-62
2022/09/24 02:22:10;;;;;;;0.00;0.00;;;11.80;99.90;;;;;;5032539;28;20724;-61
2022/09/24 02:24:52;;;;;;;0.08;0.08;;;11.70;99.90;;;;;;5041770;28;20598;-62
2022/09/24 02:27:18;;;;;;;0.00;0.00;;;11.70;99.90;;;;;;5049672;28;20204;-62
2022/09/24 02:29:45;;;;;;;0.40;0.40;;;11.70;99.90;;;;;;5032981;28;20194;-62
2022/09/24 02:32:14;;;;;;;0.10;0.10;;;11.70;99.90;;;;;;5032053;28;20197;-62
2022/09/24 02:34:47;;;;;;;0.10;0.10;;;11.70;99.90;;;;;;5034338;28;20181;-62
2022/09/24 02:37:14;;;;;;;0.00;0.00;;;11.70;99.90;;;;;;5034788;28;20169;-61
2022/09/24 02:39:41;;;;;;;0.00;0.00;;;11.70;99.90;;;;;;5036514;28;20190;-61
2022/09/24 02:42:09;;;;;;;0.00;0.00;;;11.60;99.90;;;;;;5031752;28;20626;-61
2022/09/24 02:44:35;;;;;;;0.05;0.00;;;11.60;99.90;;;;;;5021131;28;20186;-61
2022/09/24 02:47:01;;;;;;;0.17;0.17;;;11.60;99.90;;;;;;5032631;28;20228;-61
2022/09/24 02:49:27;;;;;;;0.10;0.10;;;11.60;99.90;;;;;;5031586;28;20216;-62
2022/09/24 02:51:53;;;;;;;0.00;0.00;;;11.60;99.90;;;;;;5032870;28;20197;-61
2022/09/24 02:54:19;;;;;;;0.00;0.00;;;11.60;99.90;;;;;;5031478;28;20194;-62
2022/09/24 02:56:44;;;;;;;0.00;0.00;;;11.60;99.90;;;;;;5049259;28;20173;-61
2022/09/24 02:59:11;;;;;;;0.00;0.00;;;11.60;99.90;;;;;;5049754;28;20200;-61
2022/09/24 03:01:36;;;;;;;0.20;0.20;;;11.60;99.90;;;;;;5051592;28;20185;-61
2022/09/24 03:04:02;;;;;;;0.00;0.00;;;11.60;99.90;;;;;;5032533;28;20269;-62
2022/09/24 03:06:29;;;;;;;0.28;0.20;;;11.60;99.90;;;;;;5039502;28;20188;-61
2022/09/24 03:08:55;;;;;;;0.10;0.10;;;11.60;99.90;;;;;;5051491;28;20237;-61
2022/09/24 03:11:21;;;;;;;0.00;0.00;;;11.60;99.90;;;;;;5038213;28;20284;-61
2022/09/24 03:13:47;;;;;;;0.10;0.10;;;11.60;99.90;;;;;;5031554;28;20185;-62
2022/09/24 03:16:13;;;;;;;0.00;0.00;;;11.60;99.90;;;;;;5041755;28;20186;-61
2022/09/24 03:18:38;;;;;;;0.10;0.10;;;11.60;99.90;;;;;;5049968;28;20507;-62
2022/09/24 03:21:07;;;;;;;0.00;0.00;;;11.50;99.90;;;;;;5049707;28;20181;-61
2022/09/24 03:23:33;;;;;;;0.00;0.00;;;11.50;99.90;;;;;;5051762;28;20190;-61
2022/09/24 03:25:59;;;;;;;0.13;0.08;;;11.50;99.90;;;;;;5035111;28;20752;-62
2022/09/24 03:28:25;;;;;;;0.10;0.10;;;11.50;99.90;;;;;;5049094;28;20225;-61
2022/09/24 03:30:59;;;;;;;0.00;0.00;;;11.50;99.90;;;;;;5053559;28;20273;-61
2022/09/24 03:33:34;;;;;;;0.00;0.00;;;11.50;99.90;;;;;;5055097;28;20252;-61
2022/09/24 03:36:06;;;;;;;0.10;0.10;;;11.50;99.90;;;;;;5042327;28;20178;-61
2022/09/24 03:38:32;;;;;;;0.00;0.00;;;11.50;99.90;;;;;;5041235;28;20220;-61
2022/09/24 03:40:58;;;;;;;1.42;0.32;;;11.50;99.90;;;;;;5040109;28;20201;-61
2022/09/24 03:43:24;;;;;;;0.25;0.20;;;11.40;99.90;;;;;;5049476;28;20209;-61
2022/09/24 03:45:51;;;;;;;0.10;0.10;;;11.40;99.90;;;;;;5035235;28;20585;-61
2022/09/24 03:48:18;;;;;;;0.00;0.00;;;11.40;99.90;;;;;;5034833;28;20713;-61
2022/09/24 03:50:44;;;;;;;0.43;0.30;;;11.40;99.90;;;;;;5043111;28;20185;-62
2022/09/24 03:53:11;;;;;;;0.00;0.00;;;11.40;99.90;;;;;;5040385;28;20261;-61
2022/09/24 03:55:48;;;;;;;0.08;0.08;;;11.40;99.90;;;;;;5015058;28;20523;-61
2022/09/24 03:58:14;;;;;;;0.00;0.00;;;11.40;99.90;;;;;;5049153;28;20185;-61
2022/09/24 04:00:41;;;;;;;0.10;0.10;;;11.30;99.90;;;;;;5051217;28;20181;-61
2022/09/24 04:03:07;;;;;;;0.25;0.25;;;11.30;99.90;;;;;;5034556;28;20701;-61
2022/09/24 04:05:33;;;;;;;0.80;0.10;;;11.30;99.90;;;;;;5047537;28;20185;-61
2022/09/24 04:08:00;;;;;;;0.47;0.47;;;11.30;99.90;;;;;;5054368;28;20315;-61
2022/09/24 04:10:25;;;;;;;0.08;0.08;;;11.30;99.90;;;;;;5052635;28;20679;-61
2022/09/24 04:12:51;;;;;;;0.10;0.10;;;11.30;99.90;;;;;;5054583;28;20213;-61
2022/09/24 04:15:18;;;;;;;0.57;0.30;;;11.30;99.90;;;;;;5041159;28;20182;-61
2022/09/24 04:17:50;;;;;;;0.00;0.00;;;11.30;99.90;;;;;;5035840;28;20605;-61
2022/09/24 04:20:18;;;;;;;0.00;0.00;;;11.30;99.90;;;;;;5036597;28;20694;-61
2022/09/24 04:22:44;;;;;;;0.00;0.00;;;11.20;99.90;;;;;;5045403;28;20185;-61
2022/09/24 04:25:09;;;;;;;0.47;0.30;;;11.30;99.90;;;;;;5047748;28;20572;-61
2022/09/24 04:27:35;;;;;;;0.22;0.22;;;11.20;99.90;;;;;;5052615;28;20241;-61
2022/09/24 04:30:01;;;;;;;0.13;0.13;;;11.20;99.90;;;;;;5054260;28;20523;-61
2022/09/24 04:32:26;;;;;;;0.05;0.05;;;11.20;99.90;;;;;;5051940;28;20181;-61
2022/09/24 04:34:52;;;;;;;0.15;0.15;;;11.20;99.90;;;;;;5035208;28;20534;-61
2022/09/24 04:37:17;;;;;;;0.00;0.00;;;11.20;99.90;;;;;;5049031;28;20235;-61
2022/09/24 04:39:43;;;;;;;0.08;0.08;;;11.20;99.90;;;;;;5045126;28;20243;-61
2022/09/24 04:42:08;;;;;;;0.47;0.47;;;11.20;99.90;;;;;;5034075;28;20174;-61
2022/09/24 04:44:33;;;;;;;0.13;0.13;;;11.20;99.90;;;;;;5035074;28;20187;-61
2022/09/24 04:47:01;;;;;;;0.38;0.38;;;11.20;99.90;;;;;;5040069;28;20212;-61
2022/09/24 04:49:28;;;;;;;0.32;0.20;;;11.20;99.90;;;;;;5049311;28;20513;-61
2022/09/24 04:51:53;;;;;;;0.17;0.17;;;11.20;99.90;;;;;;5046908;28;20235;-61
2022/09/24 04:54:19;;;;;;;0.00;0.00;;;11.20;99.90;;;;;;5043324;28;20709;-61
2022/09/24 04:56:45;;;;;;;0.10;0.10;;;11.10;99.90;;;;;;5036666;28;20649;-61
2022/09/24 04:59:10;;;;;;;0.10;0.10;;;11.10;99.90;;;;;;5041248;28;20267;-61
2022/09/24 05:01:35;;;;;;;0.30;0.30;;;11.20;99.90;;;;;;5034621;28;20201;-61
2022/09/24 05:04:01;;;;;;;0.55;0.55;;;11.10;99.90;;;;;;5049414;28;20225;-61
2022/09/24 05:06:26;;;;;;;0.20;0.20;;;11.10;99.90;;;;;;5051847;28;20284;-61
2022/09/24 05:08:52;;;;;;;0.13;0.08;;;11.10;99.90;;;;;;5053565;28;20224;-61
2022/09/24 05:11:18;;;;;;;0.00;0.00;;;11.10;99.90;;;;;;5051625;28;20235;-61
2022/09/24 05:13:44;;;;;;;0.08;0.08;;;11.10;99.90;;;;;;5053559;28;20177;-61
2022/09/24 05:16:09;;;;;;;0.00;0.00;;;11.10;99.90;;;;;;5037886;28;20197;-61
2022/09/24 05:18:35;;;;;;;0.00;0.00;;;11.10;99.90;;;;;;5035562;28;20664;-60
2022/09/24 05:21:01;;;;;;;0.03;0.03;;;11.10;99.90;;;;;;5037553;28;20178;-60
2022/09/24 05:23:27;;;;;;;0.00;0.00;;;11.10;99.90;;;;;;5033264;28;20216;-61
2022/09/24 05:28:38;;;;;;;0.00;0.00;;;11.10;99.90;;;;;;5033245;28;20755;-61
2022/09/24 05:31:04;;;;;;;0.00;0.00;;;11.10;99.90;;;;;;5033207;28;20257;-61
2022/09/24 05:33:29;;;;;;;0.17;0.17;;;11.10;99.90;;;;;;5032972;28;20265;-61
2022/09/24 05:35:56;;;;;;;0.00;0.00;;;11.10;99.90;;;;;;5033007;28;20178;-61
2022/09/24 05:38:23;;;;;;;0.03;0.03;;;11.20;99.90;;;;;;5032763;28;20602;-61
2022/09/24 05:40:49;;;;;;;0.10;0.10;;;11.20;99.90;;;;;;5033069;28;20227;-60
2022/09/24 05:43:16;;;;;;;0.00;0.00;;;11.20;99.90;;;;;;5032783;28;20178;-61
2022/09/24 05:45:44;;;;;;;0.00;0.00;;;11.30;99.90;;;;;;5031911;28;20201;-61
2022/09/24 05:48:09;;;;;;;0.15;0.15;;;11.30;99.90;;;;;;5032642;28;20221;-60
2022/09/24 05:50:35;;;;;;;0.32;0.32;;;11.40;99.90;;;;;;5032676;28;20175;-61
2022/09/24 05:53:01;;;;;;;0.05;0.05;;;11.40;99.90;;;;;;5032489;28;20260;-61
2022/09/24 05:55:27;;;;;;;0.10;0.10;;;11.50;99.90;;;;;;5032380;28;20178;-61
2022/09/24 05:57:52;;;;;;;0.15;0.15;;;11.60;99.90;;;;;;5032676;28;20323;-61
2022/09/24 06:00:18;;;;;;;0.10;0.10;;;11.60;99.90;;;;;;5032545;28;20181;-61
2022/09/24 06:02:44;;;;;;;0.00;0.00;;;11.60;99.90;;;;;;5033541;28;20221;-60
2022/09/24 06:05:10;;;;;;;0.10;0.10;;;11.70;99.90;;;;;;5045701;28;20619;-61
2022/09/24 06:07:36;;;;;;;0.10;0.10;;;11.80;99.90;;;;;;5045039;28;20364;-61
2022/09/24 06:10:02;;;;;;;1.15;0.25;;;11.90;99.90;;;;;;5033187;28;20260;-60
2022/09/24 06:12:28;;;;;;;0.17;0.17;;;11.90;99.90;;;;;;5041545;28;20952;-60
2022/09/24 06:14:54;;;;;;;0.03;0.03;;;12.00;99.90;;;;;;5038461;28;20662;-61
2022/09/24 06:17:20;;;;;;;0.22;0.22;;;12.10;99.90;;;;;;5032011;28;20185;-61
2022/09/24 06:19:46;;;;;;;0.13;0.13;;;12.10;99.90;;;;;;5033425;28;20186;-61
2022/09/24 06:22:12;;;;;;;0.22;0.22;;;12.20;99.90;;;;;;5035489;28;20174;-60
2022/09/24 06:24:37;;;;;;;0.30;0.30;;;12.20;99.90;;;;;;5032263;28;20178;-61
2022/09/24 06:27:03;;;;;;;0.22;0.20;;;12.30;99.90;;;;;;5039717;28;20220;-61
2022/09/24 06:29:28;;;;;;;0.00;0.00;;;12.40;99.90;;;;;;5048865;28;20189;-60
2022/09/24 06:31:54;;;;;;;0.40;0.30;;;12.40;99.90;;;;;;5048974;28;20197;-62
2022/09/24 06:34:20;;;;;;;0.10;0.10;;;12.50;99.90;;;;;;5047597;28;20272;-59
2022/09/24 06:36:45;;;;;;;0.28;0.28;;;12.50;99.90;;;;;;5050352;28;20177;-59
2022/09/24 06:39:11;;;;;;;0.00;0.00;;;12.50;99.90;;;;;;5032920;28;20190;-61
2022/09/24 06:41:36;;;;;;;0.00;0.00;;;12.50;99.90;;;;;;5042697;28;20275;-61
2022/09/24 06:44:02;;;;;;;0.10;0.10;;;12.60;99.90;;;;;;5038346;28;20177;-61
2022/09/24 06:46:27;;;;;;;0.35;0.35;;;12.60;99.90;;;;;;5037618;28;20586;-62
2022/09/24 06:48:53;;;;;;;0.20;0.20;;;12.60;99.90;;;;;;5031739;28;20217;-61
2022/09/24 06:51:19;;;;;;;0.22;0.22;;;12.70;99.90;;;;;;5031602;28;20170;-60
2022/09/24 06:53:45;;;;;;;0.17;0.17;;;12.70;99.90;;;;;;5031687;28;20182;-60
2022/09/24 06:56:11;;;;;;;0.08;0.08;;;12.80;99.90;;;;;;5043609;28;20253;-61
2022/09/24 06:58:36;;;;;;;0.13;0.13;;;12.90;99.90;;;;;;5045117;28;20185;-61
2022/09/24 07:01:02;;;;;;;0.00;0.00;;;13.10;99.90;;;;;;5051434;28;20178;-61
2022/09/24 07:03:30;;;;;;;0.38;0.32;;;13.20;99.90;;;;;;5044389;28;20229;-61
2022/09/24 07:05:59;;;;;;;0.10;0.10;;;13.40;99.90;;;;;;5031776;28;20166;-62
2022/09/24 07:08:25;;;;;;;0.08;0.08;;;13.50;99.90;;;;;;5036302;28;20300;-62
2022/09/24 07:10:51;;;;;;;0.00;0.00;;;13.70;99.90;;;;;;5046618;28;20288;-60
2022/09/24 07:13:17;;;;;;;0.00;0.00;;;13.80;99.90;;;;;;5049919;28;20235;-62
2022/09/24 07:15:44;;;;;;;0.10;0.10;;;14.00;99.90;;;;;;5031993;28;20205;-61
2022/09/24 07:18:11;;;;;;;0.20;0.20;;;14.10;99.90;;;;;;5046132;28;20537;-60
2022/09/24 07:20:36;;;;;;;0.00;0.00;;;14.20;99.90;;;;;;5039326;28;20182;-60
2022/09/24 07:23:03;;;;;;;0.10;0.10;;;14.30;99.90;;;;;;5044344;28;20181;-64
2022/09/24 07:25:29;;;;;;;0.00;0.00;;;14.40;99.90;;;;;;5049733;28;20193;-61
2022/09/24 07:27:55;;;;;;;0.00;0.00;;;14.50;99.90;;;;;;5040864;28;20218;-63
2022/09/24 07:30:20;;;;;;;0.00;0.00;;;14.60;99.90;;;;;;5036747;28;20178;-62
2022/09/24 07:32:49;;;;;;;0.00;0.00;;;14.70;99.90;;;;;;5038527;28;20630;-64
2022/09/24 07:35:14;;;;;;;0.17;0.17;;;14.80;99.90;;;;;;5036070;28;20185;-63
2022/09/24 07:37:40;;;;;;;0.03;0.03;;;14.90;99.90;;;;;;5041627;28;20269;-65
2022/09/24 07:40:06;;;;;;;0.00;0.00;;;14.90;99.90;;;;;;5050095;28;20261;-65
2022/09/24 07:42:32;;;;;;;0.25;0.25;;;15.00;99.90;;;;;;5043294;28;20685;-64
2022/09/24 07:44:59;;;;;;;0.20;0.20;;;15.10;99.90;;;;;;5031400;28;20200;-65
2022/09/24 07:47:25;;;;;;;0.00;0.00;;;15.20;99.90;;;;;;5030974;28;20244;-66
2022/09/24 07:49:50;;;;;;;0.10;0.10;;;15.30;99.90;;;;;;5031355;28;20206;-63
2022/09/24 07:52:16;;;;;;;0.35;0.35;;;15.30;99.90;;;;;;5048861;28;20663;-67
2022/09/24 07:54:41;;;;;;;0.22;0.22;;;15.40;99.90;;;;;;5033411;28;20657;-65
2022/09/24 07:57:12;;;;;;;0.15;0.15;;;15.50;99.90;;;;;;5043155;28;20657;-62
2022/09/24 07:59:38;;;;;;;0.00;0.00;;;15.60;99.90;;;;;;5040153;28;20625;-63
2022/09/24 08:02:12;;;;;;;0.00;0.00;;;15.80;99.90;;;;;;5044318;28;20190;-63
2022/09/24 08:04:38;;;;;;;0.03;0.03;;;15.90;99.90;;;;;;5046788;28;20197;-61
2022/09/24 08:07:03;;;;;;;1.05;0.98;;;15.90;99.90;;;;;;5032379;28;20565;-61
2022/09/24 08:09:29;;;;;;;0.75;0.20;;;16.00;99.90;;;;;;5036146;28;20308;-61
2022/09/24 08:11:54;;;;;;;0.15;0.15;;;16.10;99.90;;;;;;5052819;28;20177;-61
2022/09/24 08:14:20;;;;;;;0.17;0.17;;;16.10;99.90;;;;;;5047197;28;20185;-61
2022/09/24 08:16:45;;;;;;;0.47;0.47;;;16.20;99.90;;;;;;5035957;28;20260;-62
2022/09/24 08:19:13;;;;;;;0.20;0.20;;;16.20;99.90;;;;;;5038213;28;20201;-62
2022/09/24 08:21:38;;;;;;;0.20;0.20;;;16.20;99.90;;;;;;5046786;28;20194;-63
2022/09/24 08:24:04;;;;;;;0.20;0.20;;;16.20;99.90;;;;;;5047080;28;20523;-62
2022/09/24 08:26:29;;;;;;;0.00;0.00;;;16.20;99.90;;;;;;5043943;28;20208;-62
2022/09/24 08:28:55;;;;;;;0.15;0.08;;;16.20;99.90;;;;;;5035031;28;20209;-62
2022/09/24 08:31:20;;;;;;;0.15;0.15;;;16.10;99.90;;;;;;5035963;28;20177;-62
2022/09/24 08:33:49;;;;;;;0.20;0.20;;;16.20;99.90;;;;;;5040723;28;20534;-62
2022/09/24 08:36:15;;;;;;;0.20;0.20;;;16.20;99.90;;;;;;5044789;28;20220;-62
2022/09/24 08:38:41;;;;;;;0.05;0.05;;;16.20;99.90;;;;;;5053822;28;20182;-62
2022/09/24 08:41:42;;;;;;;0.43;0.43;;;16.20;99.90;;;;;;5043141;28;20178;-62
2022/09/24 08:44:13;;;;;;;0.00;0.00;;;16.20;99.90;;;;;;5021594;28;20276;-62
2022/09/24 08:49:46;;;;;;;0.10;0.10;;;16.30;99.90;;;;;;5038163;28;20244;-63
2022/09/24 08:52:41;;;;;;;0.40;0.40;;;16.30;99.90;;;;;;5037289;28;20190;-62
2022/09/24 08:55:21;;;;;;;0.10;0.10;;;16.30;99.90;;;;;;5042323;28;20619;-62
2022/09/24 08:57:59;;;;;;;0.10;0.10;;;16.30;99.90;;;;;;5033856;28;20184;-62
2022/09/24 09:00:30;;;;;;;0.08;0.08;;;16.30;99.90;;;;;;5033882;28;20261;-62
2022/09/24 09:03:05;;;;;;;0.20;0.20;;;16.20;99.90;;;;;;5033690;28;20234;-62
2022/09/24 09:05:33;;;;;;;0.00;0.00;;;16.10;99.90;;;;;;5033864;28;20257;-62
2022/09/24 09:08:15;;;;;;;0.13;0.13;;;16.10;99.90;;;;;;5033446;28;20213;-63
2022/09/24 09:10:42;;;;;;;0.28;0.28;;;16.10;99.90;;;;;;5033505;28;20638;-63
2022/09/24 09:13:33;;;;;;;0.20;0.20;;;16.10;99.90;;;;;;5033372;28;20167;-62
2022/09/24 09:16:21;;;;;;;0.03;0.03;;;16.20;99.90;;;;;;5033432;28;20186;-62
2022/09/24 09:18:49;;;;;;;0.20;0.20;;;16.20;99.90;;;;;;5032600;28;20638;-62
2022/09/24 09:21:33;;;;;;;0.63;0.63;;;16.30;99.90;;;;;;5033237;28;20184;-62
2022/09/24 09:24:01;;;;;;;0.77;0.77;;;16.40;99.90;;;;;;5051927;28;20181;-62
2022/09/24 09:26:26;;;;;;;0.22;0.10;;;16.50;99.90;;;;;;5053207;28;20184;-62
2022/09/24 09:28:57;;;;;;;0.52;0.52;;;16.60;99.90;;;;;;5053239;28;20571;-61
2022/09/24 09:31:22;;;;;;;0.50;0.50;;;16.70;99.90;;;;;;5044686;28;20186;-62
2022/09/24 09:33:55;;;;;;;0.15;0.15;;;16.80;99.90;;;;;;5034428;28;20182;-63
2022/09/24 09:36:44;;;;;;;0.00;0.00;;;16.90;99.90;;;;;;5032798;28;20277;-62
2022/09/24 09:39:32;;;;;;;0.17;0.17;;;16.80;99.90;;;;;;5033266;28;20178;-62
2022/09/24 09:42:08;;;;;;;0.22;0.22;;;16.70;99.90;;;;;;5038085;28;20197;-63
2022/09/24 09:44:40;;;;;;;0.15;0.15;;;16.70;99.90;;;;;;5039364;28;20180;-63
2022/09/24 09:47:17;;;;;;;0.98;0.98;;;17.00;99.90;;;;;;5033844;28;20185;-63
2022/09/24 09:49:46;;;;;;;0.40;0.40;;;17.30;99.90;;;;;;5032508;28;20223;-63
2022/09/24 09:52:19;;;;;;;0.10;0.10;;;17.50;99.90;;;;;;5031145;28;20174;-67
2022/09/24 09:54:46;;;;;;;0.10;0.10;;;17.70;99.90;;;;;;5039198;28;20197;-67
2022/09/24 09:57:16;;;;;;;1.08;0.63;;;18.00;99.90;;;;;;5032953;28;20186;-66
2022/09/24 09:59:45;;;;;;;1.25;1.15;;;18.20;99.90;;;;;;5047272;28;20178;-66
2022/09/24 10:02:21;;;;;;;0.20;0.20;;;18.40;99.90;;;;;;5048474;28;20178;-68
2022/09/24 10:04:46;;;;;;;0.40;0.40;;;18.50;99.90;;;;;;5032701;28;20185;-66
2022/09/24 10:07:14;;;;;;;0.45;0.45;;;18.60;99.90;;;;;;5032366;28;20244;-65
2022/09/24 10:09:41;;;;;;;0.43;0.32;;;18.70;99.90;;;;;;5046804;28;20825;-64
2022/09/24 10:12:08;;;;;;;0.40;0.40;;;18.80;99.90;;;;;;5052376;28;20176;-64
2022/09/24 10:14:34;;;;;;;0.35;0.30;;;18.90;99.90;;;;;;5034684;28;20727;-63
2022/09/24 10:17:04;;;;;;;0.20;0.20;;;19.00;99.90;;;;;;5039618;28;20178;-62
2022/09/24 10:19:35;;;;;;;2.05;1.33;;;19.20;99.90;;;;;;5032544;28;20182;-61
2022/09/24 10:22:30;;;;;;;2.63;2.42;;;19.30;99.90;;;;;;5041953;28;20192;-61
2022/09/24 10:24:59;;;;;;;0.22;0.22;;;19.50;99.70;;;;;;5029346;28;20189;-62
2022/09/24 10:27:45;;;;;;;0.40;0.35;;;19.50;99.60;;;;;;5046472;28;20221;-63
2022/09/24 10:30:32;;;;;;;0.20;0.20;;;19.60;99.60;;;;;;5032905;28;20190;-63
2022/09/24 10:33:00;;;;;;;0.10;0.10;;;19.60;99.50;;;;;;5046362;28;20193;-62
2022/09/24 10:35:30;;;;;;;0.00;0.00;;;19.50;99.80;;;;;;5048563;28;20182;-61
2022/09/24 10:37:57;;;;;;;0.10;0.10;;;19.20;99.90;;;;;;5032311;28;20610;-61
2022/09/24 10:40:30;;;;;;;0.00;0.00;;;18.90;99.90;;;;;;5031949;28;20247;-62
2022/09/24 10:42:58;;;;;;;0.20;0.20;;;18.80;99.90;;;;;;5047406;28;20217;-62
2022/09/24 10:45:39;;;;;;;0.25;0.10;;;18.60;99.90;;;;;;5051891;28;20169;-62
2022/09/24 10:48:23;;;;;;;0.10;0.10;;;18.50;99.90;;;;;;5051863;28;20244;-62
2022/09/24 10:50:57;;;;;;;0.00;0.00;;;18.30;99.90;;;;;;5051947;28;20169;-62
2022/09/24 10:53:38;;;;;;;0.15;0.15;;;18.00;99.90;;;;;;5050015;28;20181;-62
2022/09/24 10:56:34;;;;;;;0.10;0.10;;;17.90;99.90;;;;;;5031934;28;20178;-62
2022/09/24 10:59:19;;;;;;;0.10;0.10;;;17.80;99.90;;;;;;5031572;28;20182;-62
2022/09/24 11:02:02;;;;;;;0.93;0.38;;;17.70;99.90;;;;;;5031921;28;20185;-62
2022/09/24 11:04:53;;;;;;;0.10;0.10;;;17.70;99.90;;;;;;5031809;28;20189;-62
2022/09/24 11:07:47;;;;;;;0.32;0.32;;;17.70;99.90;;;;;;5031696;28;20289;-62
2022/09/24 11:10:34;;;;;;;0.00;0.00;;;17.70;99.90;;;;;;5031624;28;20181;-62
2022/09/24 11:13:24;;;;;;;0.17;0.17;;;17.80;99.90;;;;;;5031749;28;20637;-63
2022/09/24 11:16:07;;;;;;;0.00;0.00;;;17.90;99.90;;;;;;5031915;28;20181;-62
2022/09/24 11:18:39;;;;;;;0.00;0.00;;;18.00;99.90;;;;;;5031564;28;20182;-62
2022/09/24 11:21:40;;;;;;;0.00;0.00;;;18.00;99.90;;;;;;5031637;28;20186;-62
2022/09/24 11:24:33;;;;;;;0.00;0.00;;;18.00;99.90;;;;;;5030277;28;20182;-62
2022/09/24 11:27:27;;;;;;;0.08;0.08;;;17.90;99.90;;;;;;5031636;28;20591;-63
2022/09/24 11:30:23;;;;;;;0.10;0.10;;;17.90;99.90;;;;;;5031745;28;20655;-63
2022/09/24 11:32:49;;;;;;;0.20;0.20;;;18.00;99.90;;;;;;5031637;28;20182;-63
2022/09/24 11:35:20;;;;;;;0.10;0.10;;;18.20;99.90;;;;;;5031317;28;20272;-62
2022/09/24 11:38:01;;;;;;;0.00;0.00;;;18.40;99.90;;;;;;5031436;28;20178;-63
2022/09/24 11:40:46;;;;;;;0.08;0.08;;;18.60;99.90;;;;;;5031297;28;20637;-63
2022/09/24 11:43:37;;;;;;;0.10;0.10;;;18.70;99.90;;;;;;5033310;28;20181;-63
2022/09/24 11:46:15;;;;;;;0.20;0.20;;;18.70;99.90;;;;;;5035196;28;20186;-62
2022/09/24 11:48:55;;;;;;;0.20;0.20;;;18.80;99.90;;;;;;5033854;28;20228;-63
2022/09/24 11:51:33;;;;;;;0.00;0.00;;;18.90;99.90;;;;;;5035027;28;20253;-63
2022/09/24 11:54:37;;;;;;;0.03;0.03;;;19.00;99.90;;;;;;5035073;28;20185;-62
2022/09/24 11:57:23;;;;;;;0.00;0.00;;;19.10;99.90;;;;;;5034948;28;20174;-62
2022/09/24 11:59:55;;;;;;;0.10;0.10;;;19.10;99.90;;;;;;5035062;28;20271;-63
2022/09/24 12:02:24;;;;;;;0.00;0.00;;;19.20;99.90;;;;;;5034609;28;20222;-62
2022/09/24 12:05:21;;;;;;;0.00;0.00;;;19.40;99.90;;;;;;5034931;28;20189;-62
2022/09/24 12:08:14;;;;;;;0.10;0.10;;;19.50;99.90;;;;;;5034730;28;20324;-63
2022/09/24 12:10:56;;;;;;;0.10;0.10;;;19.50;99.90;;;;;;5034666;28;20212;-63
2022/09/24 12:13:29;;;;;;;0.20;0.20;;;19.40;99.90;;;;;;5034582;28;20176;-62
2022/09/24 12:16:01;;;;;;;0.00;0.00;;;19.40;99.90;;;;;;5034650;28;20637;-63
2022/09/24 12:18:57;;;;;;;0.10;0.10;;;19.50;99.90;;;;;;5034628;28;20171;-62
2022/09/24 12:21:44;;;;;;;0.00;0.00;;;19.40;99.90;;;;;;5034470;28;20735;-63
2022/09/24 12:24:19;;;;;;;0.00;0.00;;;19.40;99.90;;;;;;5034461;28;20174;-63
2022/09/24 12:26:46;;;;;;;0.00;0.00;;;19.40;99.90;;;;;;5033194;28;20586;-62
2022/09/24 12:33:04;;;;;;;0.10;0.10;;;19.60;99.90;;;;;;5033546;28;20185;-63
2022/09/24 12:35:50;;;;;;;0.00;0.00;;;19.70;99.90;;;;;;5034404;28;20190;-62
2022/09/24 12:38:18;;;;;;;0.15;0.10;;;19.80;99.90;;;;;;5034269;28;20210;-63
2022/09/24 12:41:06;;;;;;;0.10;0.10;;;19.90;99.90;;;;;;5034112;28;20547;-63
2022/09/24 12:43:33;;;;;;;0.00;0.00;;;20.00;99.90;;;;;;5034063;28;20209;-63
2022/09/24 12:46:02;;;;;;;0.05;0.05;;;20.00;99.90;;;;;;5034177;28;20181;-62
2022/09/24 12:48:30;;;;;;;0.20;0.10;;;20.10;99.90;;;;;;5033928;28;20647;-63
2022/09/24 12:50:58;;;;;;;0.32;0.20;;;20.20;99.90;;;;;;5034136;28;20257;-62
2022/09/24 12:53:32;;;;;;;0.10;0.10;;;20.20;99.90;;;;;;5033524;28;20578;-63
2022/09/24 12:56:03;;;;;;;0.13;0.05;;;20.20;99.90;;;;;;5034056;28;20185;-63
2022/09/24 12:58:40;;;;;;;0.00;0.00;;;20.10;99.90;;;;;;5033901;28;20232;-63
2022/09/24 13:01:06;;;;;;;0.05;0.05;;;20.00;99.90;;;;;;5033876;28;20182;-63
2022/09/24 13:03:35;;;;;;;0.20;0.20;;;20.00;99.90;;;;;;5033595;28;20242;-62
2022/09/24 13:06:01;;;;;;;0.00;0.00;;;19.90;99.90;;;;;;5033726;28;20194;-63
2022/09/24 13:08:38;;;;;;;0.00;0.00;;;19.90;99.90;;;;;;5033569;28;20301;-63
2022/09/24 13:11:23;;;;;;;0.00;0.00;;;19.90;99.90;;;;;;5033470;28;20645;-63
2022/09/24 13:14:12;;;;;;;0.13;0.13;;;19.90;99.90;;;;;;5033638;28;20550;-62
2022/09/24 13:16:41;;;;;;;0.40;0.40;;;19.60;99.90;;;;;;5033575;28;20186;-62
2022/09/24 13:19:35;;;;;;;0.30;0.30;;;19.50;99.90;;;;;;5033483;28;20228;-62
2022/09/24 13:22:01;;;;;;;0.00;0.00;;;19.50;99.90;;;;;;5033424;28;20528;-62